Time,TemperatureF,DewpointF,PressureIn,WindDirection,WindDirectionDegrees,WindSpeedMPH,WindSpeedGustMPH,Humidity,HourlyPrecipIn,Conditions,Clouds,dailyrainin,SoftwareType,DateUTC
2013-07-09 00:00:00,66.4,59.3,29.80,NW,323,0.0,0.0,78,0.00,,,0.00,Wunderground v.1.15,2013-07-09 07:00:00,
2013-07-09 00:05:00,66.4,59.3,29.80,NW,323,0.0,0.0,78,0.00,,,0.00,Wunderground v.1.15,2013-07-09 07:05:00,
2013-07-09 00:20:00,66.1,59.0,29.81,NW,323,0.0,0.0,78,0.00,,,0.00,Wunderground v.1.15,2013-07-09 07:20:00,
2013-07-09 00:30:00,65.8,59.1,29.81,NW,323,0.0,0.0,79,0.00,,,0.00,Wunderground v.1.15,2013-07-09 07:30:00,
2013-07-09 00:35:00,65.6,58.9,29.81,NW,323,0.0,0.0,79,0.00,,,0.00,Wunderground v.1.15,2013-07-09 07:35:00,
2013-07-09 00:55:00,65.1,58.4,29.81,NW,323,0.0,0.0,79,0.00,,,0.00,Wunderground v.1.15,2013-07-09 07:55:00,
2013-07-09 01:00:00,65.1,58.8,29.81,NW,323,0.0,0.0,80,0.00,,,0.00,Wunderground v.1.15,2013-07-09 08:00:00,
2013-07-09 01:05:00,64.9,58.6,29.81,NW,323,0.0,0.0,80,0.00,,,0.00,Wunderground v.1.15,2013-07-09 08:05:00,
2013-07-09 01:10:00,64.8,58.5,29.81,NW,323,0.0,0.0,80,0.00,,,0.00,Wunderground v.1.15,2013-07-09 08:10:00,
2013-07-09 01:30:00,64.5,58.9,29.80,NW,323,0.0,0.0,82,0.00,,,0.00,Wunderground v.1.15,2013-07-09 08:30:00,
2013-07-09 01:35:00,64.3,58.7,29.80,NW,323,0.0,0.0,82,0.00,,,0.00,Wunderground v.1.15,2013-07-09 08:35:00,
2013-07-09 01:40:00,64.3,58.7,29.80,NW,323,0.0,0.0,82,0.00,,,0.00,Wunderground v.1.15,2013-07-09 08:40:00,
2013-07-09 01:45:00,64.1,58.5,29.80,NW,323,0.0,0.0,82,0.00,,,0.00,Wunderground v.1.15,2013-07-09 08:45:00,
2013-07-09 02:00:00,64.0,58.4,29.79,NW,323,1.0,1.0,82,0.00,,,0.00,Wunderground v.1.15,2013-07-09 09:00:00,
2013-07-09 02:05:00,64.1,58.5,29.79,NW,323,1.0,2.0,82,0.00,,,0.00,Wunderground v.1.15,2013-07-09 09:05:00,
2013-07-09 02:15:00,64.0,58.4,29.79,NW,323,0.0,1.0,82,0.00,,,0.00,Wunderground v.1.15,2013-07-09 09:15:00,
2013-07-09 02:20:00,64.0,58.4,29.79,NW,323,0.0,0.0,82,0.00,,,0.00,Wunderground v.1.15,2013-07-09 09:20:00,
2013-07-09 02:36:00,64.0,58.4,29.79,NW,323,1.0,1.0,82,0.00,,,0.00,Wunderground v.1.15,2013-07-09 09:36:00,
2013-07-09 02:40:00,64.0,58.4,29.79,NW,323,1.0,1.0,82,0.00,,,0.00,Wunderground v.1.15,2013-07-09 09:40:00,
2013-07-09 02:50:00,64.0,58.4,29.78,NW,323,1.0,1.0,82,0.00,,,0.00,Wunderground v.1.15,2013-07-09 09:50:00,
2013-07-09 03:00:00,64.0,58.4,29.78,NW,323,1.0,1.0,82,0.00,,,0.00,Wunderground v.1.15,2013-07-09 10:00:00,
2013-07-09 03:05:00,63.8,58.2,29.78,NW,323,0.0,1.0,82,0.00,,,0.00,Wunderground v.1.15,2013-07-09 10:05:00,
2013-07-09 03:20:00,63.7,58.4,29.78,NW,323,0.0,1.0,83,0.00,,,0.00,Wunderground v.1.15,2013-07-09 10:20:00,
2013-07-09 03:30:00,63.7,58.4,29.78,NW,323,0.0,0.0,83,0.00,,,0.00,Wunderground v.1.15,2013-07-09 10:30:00,
2013-07-09 03:35:00,63.7,58.4,29.78,NW,323,0.0,1.0,83,0.00,,,0.00,Wunderground v.1.15,2013-07-09 10:35:00,
2013-07-09 03:40:00,63.7,58.8,29.78,NW,323,0.0,1.0,84,0.00,,,0.00,Wunderground v.1.15,2013-07-09 10:40:00,
2013-07-09 03:55:00,63.7,58.8,29.78,NW,323,1.0,1.0,84,0.00,,,0.00,Wunderground v.1.15,2013-07-09 10:55:00,
2013-07-09 04:00:00,63.7,58.8,29.78,NW,323,1.0,1.0,84,0.00,,,0.00,Wunderground v.1.15,2013-07-09 11:00:00,
2013-07-09 04:05:00,63.5,58.6,29.78,NW,323,0.0,1.0,84,0.00,,,0.00,Wunderground v.1.15,2013-07-09 11:05:00,
2013-07-09 04:15:00,63.3,58.7,29.78,NW,323,0.0,0.0,85,0.00,,,0.00,Wunderground v.1.15,2013-07-09 11:15:00,
2013-07-09 04:30:00,63.0,58.4,29.78,NW,323,0.0,0.0,85,0.00,,,0.00,Wunderground v.1.15,2013-07-09 11:30:00,
2013-07-09 04:35:00,63.0,58.4,29.78,NW,323,0.0,0.0,85,0.00,,,0.00,Wunderground v.1.15,2013-07-09 11:35:00,
2013-07-09 04:40:00,63.0,58.4,29.78,NW,323,0.0,0.0,85,0.00,,,0.00,Wunderground v.1.15,2013-07-09 11:40:00,
2013-07-09 04:45:00,62.8,58.5,29.78,NW,323,0.0,0.0,86,0.00,,,0.00,Wunderground v.1.15,2013-07-09 11:45:00,
2013-07-09 05:06:00,62.5,58.3,29.78,NW,323,0.0,0.0,86,0.00,,,0.00,Wunderground v.1.15,2013-07-09 12:06:00,
2013-07-09 05:10:00,62.5,58.3,29.78,NW,323,0.0,0.0,86,0.00,,,0.00,Wunderground v.1.15,2013-07-09 12:10:00,
2013-07-09 05:15:00,62.5,58.3,29.79,NW,323,0.0,0.0,86,0.00,,,0.00,Wunderground v.1.15,2013-07-09 12:15:00,
2013-07-09 05:20:00,62.4,58.2,29.79,NW,323,0.0,0.0,86,0.00,,,0.00,Wunderground v.1.15,2013-07-09 12:20:00,
2013-07-09 05:35:00,62.4,58.5,29.80,NW,323,0.0,0.0,87,0.00,,,0.00,Wunderground v.1.15,2013-07-09 12:35:00,
2013-07-09 05:40:00,62.4,58.5,29.80,NW,323,0.0,0.0,87,0.00,,,0.00,Wunderground v.1.15,2013-07-09 12:40:00,
2013-07-09 05:50:00,62.4,58.5,29.80,NW,323,1.0,1.0,87,0.00,,,0.00,Wunderground v.1.15,2013-07-09 12:50:00,
2013-07-09 05:55:00,62.4,58.5,29.80,NW,323,1.0,1.0,87,0.00,,,0.00,Wunderground v.1.15,2013-07-09 12:55:00,
2013-07-09 06:10:00,62.2,58.3,29.81,NW,323,0.0,0.0,87,0.00,,,0.00,Wunderground v.1.15,2013-07-09 13:10:00,
2013-07-09 06:20:00,62.5,58.9,29.81,NW,323,0.0,1.0,88,0.00,,,0.00,Wunderground v.1.15,2013-07-09 13:20:00,
2013-07-09 06:25:00,62.7,59.1,29.81,NW,323,0.0,1.0,88,0.00,,,0.00,Wunderground v.1.15,2013-07-09 13:25:00,
2013-07-09 06:30:00,62.7,59.1,29.81,NW,323,0.0,0.0,88,0.00,,,0.00,Wunderground v.1.15,2013-07-09 13:30:00,
2013-07-09 06:45:00,63.7,60.1,29.82,NW,323,0.0,0.0,88,0.00,,,0.00,Wunderground v.1.15,2013-07-09 13:45:00,
2013-07-09 07:00:00,65.1,61.5,29.83,NW,323,0.0,0.0,88,0.00,,,0.00,Wunderground v.1.15,2013-07-09 14:00:00,
2013-07-09 07:05:00,65.3,61.3,29.83,NW,323,0.0,0.0,87,0.00,,,0.00,Wunderground v.1.15,2013-07-09 14:05:00,
2013-07-09 07:10:00,65.8,61.8,29.83,NW,323,0.0,0.0,87,0.00,,,0.00,Wunderground v.1.15,2013-07-09 14:10:00,
2013-07-09 07:15:00,66.1,61.8,29.83,NW,323,0.0,0.0,86,0.00,,,0.00,Wunderground v.1.15,2013-07-09 14:15:00,
2013-07-09 07:35:00,67.3,62.0,29.83,NW,323,0.0,0.0,83,0.00,,,0.00,Wunderground v.1.15,2013-07-09 14:35:00,
2013-07-09 07:40:00,67.6,61.9,29.83,NW,323,0.0,0.0,82,0.00,,,0.00,Wunderground v.1.15,2013-07-09 14:40:00,
2013-07-09 07:45:00,67.8,61.8,29.83,NW,323,0.0,0.0,81,0.00,,,0.00,Wunderground v.1.15,2013-07-09 14:45:00,
2013-07-09 07:50:00,68.4,61.6,29.83,NW,323,0.0,0.0,79,0.00,,,0.00,Wunderground v.1.15,2013-07-09 14:50:00,
2013-07-09 08:05:00,71.0,61.1,29.84,ENE,73,1.0,1.0,71,0.00,,,0.00,Wunderground v.1.15,2013-07-09 15:05:00,
2013-07-09 08:15:00,71.7,61.0,29.84,ENE,73,1.0,1.0,69,0.00,,,0.00,Wunderground v.1.15,2013-07-09 15:15:00,
2013-07-09 08:20:00,72.0,61.3,29.84,NE,44,1.0,1.0,69,0.00,,,0.00,Wunderground v.1.15,2013-07-09 15:20:00,
2013-07-09 08:25:00,72.2,60.6,29.84,East,86,1.0,1.0,67,0.00,,,0.00,Wunderground v.1.15,2013-07-09 15:25:00,
2013-07-09 08:46:00,73.8,60.4,29.84,ESE,107,1.0,1.0,63,0.00,,,0.00,Wunderground v.1.15,2013-07-09 15:46:00,
2013-07-09 08:55:00,74.1,60.7,29.84,SE,144,2.0,2.0,63,0.00,,,0.00,Wunderground v.1.15,2013-07-09 15:55:00,
2013-07-09 09:00:00,74.6,61.2,29.84,SSE,161,2.0,4.0,63,0.00,,,0.00,Wunderground v.1.15,2013-07-09 16:00:00,
2013-07-09 09:05:00,75.0,61.1,29.85,SE,141,2.0,4.0,62,0.00,,,0.00,Wunderground v.1.15,2013-07-09 16:05:00,
2013-07-09 09:25:00,75.0,62.0,29.84,SSW,193,3.0,3.0,64,0.00,,,0.00,Wunderground v.1.15,2013-07-09 16:25:00,
2013-07-09 09:35:00,75.3,61.8,29.85,SSW,208,3.0,6.0,63,0.00,,,0.00,Wunderground v.1.15,2013-07-09 16:35:00,
2013-07-09 09:40:00,75.2,61.7,29.85,SSE,161,4.0,6.0,63,0.00,,,0.00,Wunderground v.1.15,2013-07-09 16:40:00,
2013-07-09 09:45:00,75.0,61.5,29.86,South,184,3.0,3.0,63,0.00,,,0.00,Wunderground v.1.15,2013-07-09 16:45:00,
2013-07-09 09:50:00,75.0,61.1,29.86,SSE,167,3.0,3.0,62,0.00,,,0.00,Wunderground v.1.15,2013-07-09 16:50:00,
2013-07-09 10:15:00,74.3,60.9,29.86,South,171,3.0,3.0,63,0.00,,,0.00,Wunderground v.1.15,2013-07-09 17:15:00,
2013-07-09 10:20:00,74.3,60.9,29.86,South,191,3.0,3.0,63,0.00,,,0.00,Wunderground v.1.15,2013-07-09 17:20:00,
2013-07-09 10:30:00,74.8,60.4,29.86,SSE,154,3.0,3.0,61,0.00,,,0.00,Wunderground v.1.15,2013-07-09 17:30:00,
2013-07-09 10:35:00,75.3,60.9,29.86,SE,144,3.0,3.0,61,0.00,,,0.00,Wunderground v.1.15,2013-07-09 17:35:00,
2013-07-09 10:55:00,75.9,61.5,29.87,SSE,160,4.0,6.0,61,0.00,,,0.00,Wunderground v.1.15,2013-07-09 17:55:00,
2013-07-09 11:00:00,76.2,61.3,29.87,SSE,158,5.0,7.0,60,0.00,,,0.00,Wunderground v.1.15,2013-07-09 18:00:00,
2013-07-09 11:05:00,76.1,61.2,29.87,SSE,155,6.0,7.0,60,0.00,,,0.00,Wunderground v.1.15,2013-07-09 18:05:00,
2013-07-09 11:10:00,75.9,61.0,29.87,South,174,6.0,7.0,60,0.00,,,0.00,Wunderground v.1.15,2013-07-09 18:10:00,
2013-07-09 11:15:00,76.1,61.7,29.87,South,174,6.0,7.0,61,0.00,,,0.00,Wunderground v.1.15,2013-07-09 18:15:00,
2013-07-09 11:20:00,76.1,61.7,29.88,South,175,6.0,9.0,61,0.00,,,0.00,Wunderground v.1.15,2013-07-09 18:20:00,
2013-07-09 11:25:00,75.5,61.1,29.88,SSE,160,6.0,9.0,61,0.00,,,0.00,Wunderground v.1.15,2013-07-09 18:25:00,
2013-07-09 11:50:00,74.8,61.4,29.89,SE,143,6.0,13.0,63,0.00,,,0.00,Wunderground v.1.15,2013-07-09 18:50:00,
2013-07-09 11:55:00,74.6,61.2,29.89,SSE,165,6.0,13.0,63,0.00,,,0.00,Wunderground v.1.15,2013-07-09 18:55:00,
2013-07-09 12:00:00,74.1,61.6,29.89,South,169,5.0,5.0,65,0.00,,,0.00,Wunderground v.1.15,2013-07-09 19:00:00,
2013-07-09 12:05:00,74.1,62.0,29.89,SSE,157,4.0,5.0,66,0.00,,,0.00,Wunderground v.1.15,2013-07-09 19:05:00,
2013-07-09 12:10:00,74.1,61.6,29.89,South,179,5.0,7.0,65,0.00,,,0.00,Wunderground v.1.15,2013-07-09 19:10:00,
2013-07-09 12:20:00,74.1,61.6,29.89,SE,136,6.0,8.0,65,0.00,,,0.00,Wunderground v.1.15,2013-07-09 19:20:00,
2013-07-09 12:25:00,73.6,61.5,29.89,South,178,7.0,8.0,66,0.00,,,0.00,Wunderground v.1.15,2013-07-09 19:25:00,
2013-07-09 12:30:00,73.2,61.6,29.89,SSE,162,7.0,8.0,67,0.00,,,0.00,Wunderground v.1.15,2013-07-09 19:30:00,
2013-07-09 12:46:00,73.2,62.0,29.90,SSW,198,8.0,13.0,68,0.00,,,0.00,Wunderground v.1.15,2013-07-09 19:46:00,
2013-07-09 12:50:00,73.1,61.5,29.90,SSE,168,8.0,13.0,67,0.00,,,0.00,Wunderground v.1.15,2013-07-09 19:50:00,
2013-07-09 12:55:00,72.7,62.3,29.90,South,175,8.0,13.0,70,0.00,,,0.00,Wunderground v.1.15,2013-07-09 19:55:00,
2013-07-09 13:00:00,73.1,61.9,29.90,SE,137,8.0,8.0,68,0.00,,,0.00,Wunderground v.1.15,2013-07-09 20:00:00,
2013-07-09 13:10:00,73.8,62.2,29.90,SSE,162,7.0,7.0,67,0.00,,,0.00,Wunderground v.1.15,2013-07-09 20:10:00,
2013-07-09 13:30:00,73.8,62.6,29.89,SSW,202,7.0,7.0,68,0.00,,,0.00,Wunderground v.1.15,2013-07-09 20:30:00,
2013-07-09 13:40:00,73.8,62.6,29.89,SE,141,8.0,8.0,68,0.00,,,0.00,Wunderground v.1.15,2013-07-09 20:40:00,
2013-07-09 13:45:00,74.1,62.4,29.89,SE,145,7.0,8.0,67,0.00,,,0.00,Wunderground v.1.15,2013-07-09 20:45:00,
2013-07-09 13:50:00,74.6,62.5,29.89,SSE,154,7.0,7.0,66,0.00,,,0.00,Wunderground v.1.15,2013-07-09 20:50:00,
2013-07-09 14:10:00,75.3,62.7,29.89,South,174,6.0,6.0,65,0.00,,,0.00,Wunderground v.1.15,2013-07-09 21:10:00,
2013-07-09 14:20:00,75.9,63.3,29.89,SSE,157,6.0,8.0,65,0.00,,,0.00,Wunderground v.1.15,2013-07-09 21:20:00,
2013-07-09 14:25:00,75.5,62.5,29.89,SE,144,7.0,8.0,64,0.00,,,0.00,Wunderground v.1.15,2013-07-09 21:25:00,
2013-07-09 14:30:00,75.3,61.8,29.89,SE,145,8.0,11.0,63,0.00,,,0.00,Wunderground v.1.15,2013-07-09 21:30:00,
2013-07-09 14:45:00,75.2,61.7,29.89,SSE,147,7.0,7.0,63,0.00,,,0.00,Wunderground v.1.15,2013-07-09 21:45:00,
2013-07-09 14:50:00,75.7,61.8,29.89,SE,136,6.0,7.0,62,0.00,,,0.00,Wunderground v.1.15,2013-07-09 21:50:00,
2013-07-09 14:55:00,75.5,60.6,29.89,SSW,193,5.0,5.0,60,0.00,,,0.00,Wunderground v.1.15,2013-07-09 21:55:00,
2013-07-09 15:00:00,75.2,60.8,29.89,SW,232,6.0,9.0,61,0.00,,,0.00,Wunderground v.1.15,2013-07-09 22:00:00,
2013-07-09 15:05:00,74.6,60.7,29.88,SSW,209,7.0,9.0,62,0.00,,,0.00,Wunderground v.1.15,2013-07-09 22:05:00,
2013-07-09 15:10:00,75.0,60.6,29.88,SW,224,6.0,7.0,61,0.00,,,0.00,Wunderground v.1.15,2013-07-09 22:10:00,
2013-07-09 15:31:00,73.9,59.6,29.87,SSW,210,7.0,7.0,61,0.00,,,0.00,Wunderground v.1.15,2013-07-09 22:31:00,
2013-07-09 15:40:00,73.9,59.6,29.87,SW,224,7.0,9.0,61,0.00,,,0.00,Wunderground v.1.15,2013-07-09 22:40:00,
2013-07-09 15:45:00,74.3,60.0,29.87,SW,217,6.0,6.0,61,0.00,,,0.00,Wunderground v.1.15,2013-07-09 22:45:00,
2013-07-09 15:50:00,74.1,59.8,29.86,SW,233,6.0,6.0,61,0.00,,,0.00,Wunderground v.1.15,2013-07-09 22:50:00,
2013-07-09 15:55:00,74.5,60.2,29.86,SW,215,6.0,9.0,61,0.00,,,0.00,Wunderground v.1.15,2013-07-09 22:55:00,
2013-07-09 16:11:00,74.8,60.4,29.86,SSE,162,5.0,5.0,61,0.00,,,0.00,Wunderground v.1.15,2013-07-09 23:11:00,
2013-07-09 16:15:00,75.0,61.1,29.86,SSE,150,5.0,5.0,62,0.00,,,0.00,Wunderground v.1.15,2013-07-09 23:15:00,
2013-07-09 16:25:00,75.2,61.3,29.86,South,176,5.0,8.0,62,0.00,,,0.00,Wunderground v.1.15,2013-07-09 23:25:00,
2013-07-09 16:30:00,75.2,60.8,29.86,SE,136,5.0,8.0,61,0.00,,,0.00,Wunderground v.1.15,2013-07-09 23:30:00,
2013-07-09 16:46:00,75.0,60.6,29.85,South,175,5.0,5.0,61,0.00,,,0.00,Wunderground v.1.15,2013-07-09 23:46:00,
2013-07-09 16:50:00,75.0,60.6,29.85,South,189,5.0,5.0,61,0.00,,,0.00,Wunderground v.1.15,2013-07-09 23:50:00,
2013-07-09 16:55:00,75.0,60.6,29.85,SSW,196,5.0,6.0,61,0.00,,,0.00,Wunderground v.1.15,2013-07-09 23:55:00,
2013-07-09 17:05:00,74.3,60.9,29.84,South,186,5.0,6.0,63,0.00,,,0.00,Wunderground v.1.15,2013-07-10 00:05:00,
2013-07-09 17:10:00,74.3,60.9,29.84,SW,219,5.0,5.0,63,0.00,,,0.00,Wunderground v.1.15,2013-07-10 00:10:00,
2013-07-09 17:30:00,74.3,61.3,29.82,SSE,167,4.0,4.0,64,0.00,,,0.00,Wunderground v.1.15,2013-07-10 00:30:00,
2013-07-09 17:35:00,74.1,61.1,29.82,SSW,202,4.0,4.0,64,0.00,,,0.00,Wunderground v.1.15,2013-07-10 00:35:00,
2013-07-09 17:45:00,73.9,61.4,29.82,South,191,4.0,4.0,65,0.00,,,0.00,Wunderground v.1.15,2013-07-10 00:45:00,
2013-07-09 18:05:00,74.3,62.2,29.81,SSW,209,3.0,6.0,66,0.00,,,0.00,Wunderground v.1.15,2013-07-10 01:05:00,
2013-07-09 18:10:00,73.8,62.2,29.81,SSW,195,4.0,6.0,67,0.00,,,0.00,Wunderground v.1.15,2013-07-10 01:10:00,
2013-07-09 18:15:00,73.8,61.7,29.81,South,174,4.0,4.0,66,0.00,,,0.00,Wunderground v.1.15,2013-07-10 01:15:00,
2013-07-09 18:35:00,73.4,61.3,29.81,South,184,4.0,4.0,66,0.00,,,0.00,Wunderground v.1.15,2013-07-10 01:35:00,
2013-07-09 18:40:00,73.1,61.5,29.81,South,171,4.0,6.0,67,0.00,,,0.00,Wunderground v.1.15,2013-07-10 01:40:00,
2013-07-09 18:50:00,72.2,61.0,29.81,South,182,5.0,6.0,68,0.00,,,0.00,Wunderground v.1.15,2013-07-10 01:50:00,
2013-07-09 19:05:00,71.2,61.3,29.80,South,176,5.0,5.0,71,0.00,,,0.00,Wunderground v.1.15,2013-07-10 02:05:00,
2013-07-09 19:10:00,71.0,61.1,29.80,SSE,155,4.0,5.0,71,0.00,,,0.00,Wunderground v.1.15,2013-07-10 02:10:00,
2013-07-09 19:15:00,70.6,61.1,29.80,South,174,4.0,4.0,72,0.00,,,0.00,Wunderground v.1.15,2013-07-10 02:15:00,
2013-07-09 19:20:00,70.3,61.2,29.80,SSW,195,5.0,6.0,73,0.00,,,0.00,Wunderground v.1.15,2013-07-10 02:20:00,
2013-07-09 19:25:00,70.3,61.2,29.80,South,188,5.0,5.0,73,0.00,,,0.00,Wunderground v.1.15,2013-07-10 02:25:00,
2013-07-09 19:40:00,69.6,60.9,29.80,SSE,157,4.0,4.0,74,0.00,,,0.00,Wunderground v.1.15,2013-07-10 02:40:00,
2013-07-09 19:45:00,69.4,61.1,29.80,SSW,202,4.0,4.0,75,0.00,,,0.00,Wunderground v.1.15,2013-07-10 02:45:00,
2013-07-09 19:50:00,69.3,61.4,29.80,SSE,147,3.0,3.0,76,0.00,,,0.00,Wunderground v.1.15,2013-07-10 02:50:00,
2013-07-09 19:55:00,68.9,61.0,29.80,SSE,168,3.0,3.0,76,0.00,,,0.00,Wunderground v.1.15,2013-07-10 02:55:00,
2013-07-09 20:15:00,68.8,61.3,29.80,South,171,1.0,1.0,77,0.00,,,0.00,Wunderground v.1.15,2013-07-10 03:15:00,
2013-07-09 20:20:00,68.8,61.7,29.80,South,171,1.0,1.0,78,0.00,,,0.00,Wunderground v.1.15,2013-07-10 03:20:00,
2013-07-09 20:25:00,68.8,61.7,29.80,South,171,1.0,1.0,78,0.00,,,0.00,Wunderground v.1.15,2013-07-10 03:25:00,
2013-07-09 20:30:00,68.8,61.7,29.80,South,169,1.0,1.0,78,0.00,,,0.00,Wunderground v.1.15,2013-07-10 03:30:00,
2013-07-09 20:35:00,68.8,61.7,29.80,South,169,1.0,2.0,78,0.00,,,0.00,Wunderground v.1.15,2013-07-10 03:35:00,
2013-07-09 20:40:00,68.8,61.7,29.80,South,169,1.0,2.0,78,0.00,,,0.00,Wunderground v.1.15,2013-07-10 03:40:00,
2013-07-09 20:55:00,68.6,61.8,29.81,South,169,1.0,1.0,79,0.00,,,0.00,Wunderground v.1.15,2013-07-10 03:55:00,
2013-07-09 21:00:00,68.6,61.8,29.81,South,169,1.0,1.0,79,0.00,,,0.00,Wunderground v.1.15,2013-07-10 04:00:00,
2013-07-09 21:05:00,68.6,61.8,29.81,South,169,1.0,1.0,79,0.00,,,0.00,Wunderground v.1.15,2013-07-10 04:05:00,
2013-07-09 21:10:00,68.6,61.8,29.81,SSE,155,1.0,1.0,79,0.00,,,0.00,Wunderground v.1.15,2013-07-10 04:10:00,
2013-07-09 21:15:00,68.6,61.8,29.81,SSE,155,1.0,1.0,79,0.00,,,0.00,Wunderground v.1.15,2013-07-10 04:15:00,
2013-07-09 21:35:00,68.3,61.9,29.82,SSE,155,1.0,1.0,80,0.00,,,0.00,Wunderground v.1.15,2013-07-10 04:35:00,
2013-07-09 21:40:00,68.1,61.7,29.82,SSE,155,0.0,1.0,80,0.00,,,0.00,Wunderground v.1.15,2013-07-10 04:40:00,
2013-07-09 21:45:00,68.1,61.7,29.82,SSE,155,0.0,0.0,80,0.00,,,0.00,Wunderground v.1.15,2013-07-10 04:45:00,
2013-07-09 21:55:00,67.9,61.5,29.82,SSE,155,0.0,0.0,80,0.00,,,0.00,Wunderground v.1.15,2013-07-10 04:55:00,
2013-07-09 22:00:00,67.9,61.5,29.82,SSE,155,0.0,0.0,80,0.00,,,0.00,Wunderground v.1.15,2013-07-10 05:00:00,
2013-07-09 22:05:00,67.9,61.5,29.83,SSE,155,0.0,0.0,80,0.00,,,0.00,Wunderground v.1.15,2013-07-10 05:05:00,
2013-07-09 22:10:00,67.8,61.4,29.83,SSE,155,0.0,0.0,80,0.00,,,0.00,Wunderground v.1.15,2013-07-10 05:10:00,
2013-07-09 22:15:00,67.8,61.8,29.83,SSE,155,0.0,0.0,81,0.00,,,0.00,Wunderground v.1.15,2013-07-10 05:15:00,
2013-07-09 22:20:00,67.8,61.8,29.83,SSE,155,0.0,0.0,81,0.00,,,0.00,Wunderground v.1.15,2013-07-10 05:20:00,
2013-07-09 22:25:00,67.8,61.8,29.83,SSE,155,0.0,0.0,81,0.00,,,0.00,Wunderground v.1.15,2013-07-10 05:25:00,
2013-07-09 22:30:00,67.6,61.6,29.83,SSE,155,0.0,0.0,81,0.00,,,0.00,Wunderground v.1.15,2013-07-10 05:30:00,
2013-07-09 22:45:00,67.6,61.6,29.83,SSE,155,1.0,2.0,81,0.00,,,0.00,Wunderground v.1.15,2013-07-10 05:45:00,
2013-07-09 22:50:00,67.4,61.4,29.83,ESE,123,1.0,2.0,81,0.00,,,0.00,Wunderground v.1.15,2013-07-10 05:50:00,
2013-07-09 22:55:00,67.3,61.3,29.83,ENE,75,2.0,2.0,81,0.00,,,0.00,Wunderground v.1.15,2013-07-10 05:55:00,
2013-07-09 23:05:00,66.9,61.2,29.84,East,100,2.0,3.0,82,0.00,,,0.00,Wunderground v.1.15,2013-07-10 06:05:00,
2013-07-09 23:10:00,66.8,61.5,29.84,ESE,104,2.0,3.0,83,0.00,,,0.00,Wunderground v.1.15,2013-07-10 06:10:00,
2013-07-09 23:15:00,66.6,61.3,29.84,ESE,104,2.0,2.0,83,0.00,,,0.00,Wunderground v.1.15,2013-07-10 06:15:00,
2013-07-09 23:20:00,66.4,61.1,29.84,ESE,104,1.0,5.0,83,0.00,,,0.00,Wunderground v.1.15,2013-07-10 06:20:00,
2013-07-09 23:45:00,65.9,61.3,29.85,ESE,113,1.0,1.0,85,0.00,,,0.00,Wunderground v.1.15,2013-07-10 06:45:00,
2013-07-09 23:55:00,65.8,61.2,29.85,SE,124,1.0,1.0,85,0.00,,,0.00,Wunderground v.1.15,2013-07-10 06:55:00,